sensor_id;sensor_type;location;lat;lon;timestamp;pressure;altitude;pressure_sealevel;temperature;humidity
27729;BME280;15126;42.186;24.340;2023-02-10T00:01:29;101477.94;;;-2.84;63.91
27729;BME280;15126;42.186;24.340;2023-02-10T00:03:57;101481.78;;;-2.85;63.45
27729;BME280;15126;42.186;24.340;2023-02-10T00:06:25;101487.00;;;-2.89;64.43
27729;BME280;15126;42.186;24.340;2023-02-10T00:08:54;101487.84;;;-2.93;65.17
27729;BME280;15126;42.186;24.340;2023-02-10T00:11:22;101475.56;;;-2.96;63.98
27729;BME280;15126;42.186;24.340;2023-02-10T00:14:10;101480.47;;;-2.93;64.24
27729;BME280;15126;42.186;24.340;2023-02-10T00:16:37;101487.56;;;-2.92;63.54
27729;BME280;15126;42.186;24.340;2023-02-10T00:19:06;101484.31;;;-2.94;63.31
27729;BME280;15126;42.186;24.340;2023-02-10T00:21:33;101451.50;;;-3.18;64.39
27729;BME280;15126;42.186;24.340;2023-02-10T00:24:00;101479.19;;;-3.01;64.27
27729;BME280;15126;42.186;24.340;2023-02-10T00:26:27;101478.13;;;-3.05;64.61
27729;BME280;15126;42.186;24.340;2023-02-10T00:28:54;101484.38;;;-2.99;63.34
27729;BME280;15126;42.186;24.340;2023-02-10T00:31:20;101480.53;;;-2.98;63.30
27729;BME280;15126;42.186;24.340;2023-02-10T00:33:47;101468.59;;;-3.07;64.20
27729;BME280;15126;42.186;24.340;2023-02-10T00:36:16;101473.47;;;-3.04;64.19
27729;BME280;15126;42.186;24.340;2023-02-10T00:38:43;101477.53;;;-3.02;64.06
27729;BME280;15126;42.186;24.340;2023-02-10T00:41:12;101466.41;;;-3.05;64.45
27729;BME280;15126;42.186;24.340;2023-02-10T00:43:40;101472.53;;;-3.18;65.55
27729;BME280;15126;42.186;24.340;2023-02-10T00:46:08;101441.63;;;-3.42;66.57
27729;BME280;15126;42.186;24.340;2023-02-10T00:48:35;101467.69;;;-3.26;65.94
27729;BME280;15126;42.186;24.340;2023-02-10T00:51:02;101471.19;;;-3.21;66.08
27729;BME280;15126;42.186;24.340;2023-02-10T00:53:31;101455.75;;;-3.35;66.60
27729;BME280;15126;42.186;24.340;2023-02-10T00:55:58;101458.13;;;-3.24;65.78
27729;BME280;15126;42.186;24.340;2023-02-10T00:58:26;101454.66;;;-3.34;66.89
27729;BME280;15126;42.186;24.340;2023-02-10T01:00:54;101467.13;;;-3.28;66.34
27729;BME280;15126;42.186;24.340;2023-02-10T01:03:22;101459.06;;;-3.38;66.37
27729;BME280;15126;42.186;24.340;2023-02-10T01:05:49;101461.25;;;-3.40;66.57
27729;BME280;15126;42.186;24.340;2023-02-10T01:08:15;101459.19;;;-3.53;67.24
27729;BME280;15126;42.186;24.340;2023-02-10T01:10:44;101456.41;;;-3.48;67.17
27729;BME280;15126;42.186;24.340;2023-02-10T01:13:12;101440.44;;;-3.65;66.96
27729;BME280;15126;42.186;24.340;2023-02-10T01:15:41;101456.16;;;-3.52;67.10
27729;BME280;15126;42.186;24.340;2023-02-10T01:18:08;101460.22;;;-3.49;66.48
27729;BME280;15126;42.186;24.340;2023-02-10T01:20:38;101453.75;;;-3.58;66.37
27729;BME280;15126;42.186;24.340;2023-02-10T01:23:05;101458.41;;;-3.59;66.20
27729;BME280;15126;42.186;24.340;2023-02-10T01:25:32;101455.22;;;-3.71;68.22
27729;BME280;15126;42.186;24.340;2023-02-10T01:28:00;101433.81;;;-3.93;69.91
27729;BME280;15126;42.186;24.340;2023-02-10T01:30:27;101456.09;;;-3.81;69.68
27729;BME280;15126;42.186;24.340;2023-02-10T01:32:54;101454.69;;;-3.73;68.39
27729;BME280;15126;42.186;24.340;2023-02-10T01:35:21;101453.97;;;-3.94;69.44
27729;BME280;15126;42.186;24.340;2023-02-10T01:37:48;101441.25;;;-4.03;70.00
27729;BME280;15126;42.186;24.340;2023-02-10T01:40:15;101452.03;;;-3.88;68.35
27729;BME280;15126;42.186;24.340;2023-02-10T01:42:41;101444.22;;;-4.00;69.90
27729;BME280;15126;42.186;24.340;2023-02-10T01:45:16;101460.31;;;-4.03;69.74
27729;BME280;15126;42.186;24.340;2023-02-10T01:47:45;101441.31;;;-4.13;69.88
27729;BME280;15126;42.186;24.340;2023-02-10T01:50:13;101455.47;;;-4.16;70.63
27729;BME280;15126;42.186;24.340;2023-02-10T01:52:42;101449.16;;;-4.07;69.29
27729;BME280;15126;42.186;24.340;2023-02-10T01:55:12;101427.69;;;-4.13;68.34
27729;BME280;15126;42.186;24.340;2023-02-10T01:57:42;101444.25;;;-4.10;69.62
27729;BME280;15126;42.186;24.340;2023-02-10T02:00:11;101446.47;;;-4.12;69.03
27729;BME280;15126;42.186;24.340;2023-02-10T02:02:41;101445.91;;;-4.09;67.91
27729;BME280;15126;42.186;24.340;2023-02-10T02:05:20;101440.75;;;-4.15;68.76
27729;BME280;15126;42.186;24.340;2023-02-10T02:07:47;101444.16;;;-4.39;69.37
27729;BME280;15126;42.186;24.340;2023-02-10T02:10:14;101435.75;;;-4.52;70.55
27729;BME280;15126;42.186;24.340;2023-02-10T02:12:47;101429.00;;;-4.60;70.20
27729;BME280;15126;42.186;24.340;2023-02-10T02:15:21;101414.84;;;-4.67;69.06
27729;BME280;15126;42.186;24.340;2023-02-10T02:17:59;101429.81;;;-4.59;68.83
27729;BME280;15126;42.186;24.340;2023-02-10T02:23:50;101415.44;;;-4.80;70.01
27729;BME280;15126;42.186;24.340;2023-02-10T02:26:32;101414.63;;;-4.81;70.70
27729;BME280;15126;42.186;24.340;2023-02-10T02:29:26;101415.69;;;-4.71;69.82
27729;BME280;15126;42.186;24.340;2023-02-10T02:32:04;101407.56;;;-4.76;69.74
27729;BME280;15126;42.186;24.340;2023-02-10T02:34:37;101409.47;;;-4.82;70.16
27729;BME280;15126;42.186;24.340;2023-02-10T02:37:10;101404.53;;;-4.75;70.29
27729;BME280;15126;42.186;24.340;2023-02-10T02:39:37;101405.09;;;-4.78;69.93
27729;BME280;15126;42.186;24.340;2023-02-10T02:42:17;101409.22;;;-4.91;69.71
27729;BME280;15126;42.186;24.340;2023-02-10T02:44:46;101403.22;;;-4.88;69.93
27729;BME280;15126;42.186;24.340;2023-02-10T02:47:21;101411.38;;;-4.83;69.85
27729;BME280;15126;42.186;24.340;2023-02-10T02:49:56;101404.28;;;-4.84;69.44
27729;BME280;15126;42.186;24.340;2023-02-10T02:52:39;101403.75;;;-4.86;70.35
27729;BME280;15126;42.186;24.340;2023-02-10T02:55:13;101395.31;;;-4.89;70.27
27729;BME280;15126;42.186;24.340;2023-02-10T02:57:46;101401.03;;;-4.81;69.85
27729;BME280;15126;42.186;24.340;2023-02-10T03:00:17;101404.81;;;-4.76;69.78
27729;BME280;15126;42.186;24.340;2023-02-10T03:02:47;101403.69;;;-4.65;68.47
27729;BME280;15126;42.186;24.340;2023-02-10T03:05:17;101405.88;;;-4.62;68.29
27729;BME280;15126;42.186;24.340;2023-02-10T03:07:45;101394.97;;;-4.57;67.83
27729;BME280;15126;42.186;24.340;2023-02-10T03:10:11;101392.75;;;-4.55;67.68
27729;BME280;15126;42.186;24.340;2023-02-10T03:12:38;101390.59;;;-4.58;68.15
27729;BME280;15126;42.186;24.340;2023-02-10T03:15:06;101392.25;;;-4.57;68.40
27729;BME280;15126;42.186;24.340;2023-02-10T03:17:32;101392.22;;;-4.52;68.13
27729;BME280;15126;42.186;24.340;2023-02-10T03:20:01;101390.69;;;-4.73;68.89
27729;BME280;15126;42.186;24.340;2023-02-10T03:22:27;101396.66;;;-4.76;69.95
27729;BME280;15126;42.186;24.340;2023-02-10T03:24:54;101388.78;;;-4.73;68.75
27729;BME280;15126;42.186;24.340;2023-02-10T03:27:21;101394.19;;;-4.68;68.36
27729;BME280;15126;42.186;24.340;2023-02-10T03:29:48;101393.38;;;-4.68;68.61
27729;BME280;15126;42.186;24.340;2023-02-10T03:32:15;101388.44;;;-4.66;68.11
27729;BME280;15126;42.186;24.340;2023-02-10T03:34:42;101394.47;;;-4.74;69.48
27729;BME280;15126;42.186;24.340;2023-02-10T03:37:10;101398.06;;;-4.84;69.93
27729;BME280;15126;42.186;24.340;2023-02-10T03:39:38;101398.84;;;-4.78;69.84
27729;BME280;15126;42.186;24.340;2023-02-10T03:42:05;101390.66;;;-4.68;68.04
27729;BME280;15126;42.186;24.340;2023-02-10T03:44:32;101388.97;;;-4.64;67.58
27729;BME280;15126;42.186;24.340;2023-02-10T03:46:59;101384.13;;;-4.67;67.02
27729;BME280;15126;42.186;24.340;2023-02-10T03:49:25;101388.44;;;-4.61;67.31
27729;BME280;15126;42.186;24.340;2023-02-10T03:51:52;101385.97;;;-4.58;67.67
27729;BME280;15126;42.186;24.340;2023-02-10T03:54:20;101386.25;;;-4.59;67.35
27729;BME280;15126;42.186;24.340;2023-02-10T03:56:47;101393.84;;;-4.56;66.99
27729;BME280;15126;42.186;24.340;2023-02-10T03:59:14;101383.00;;;-4.66;68.63
27729;BME280;15126;42.186;24.340;2023-02-10T04:01:41;101380.03;;;-4.70;68.70
27729;BME280;15126;42.186;24.340;2023-02-10T04:04:07;101381.66;;;-4.69;69.01
27729;BME280;15126;42.186;24.340;2023-02-10T04:06:34;101379.47;;;-4.67;68.51
27729;BME280;15126;42.186;24.340;2023-02-10T04:09:01;101384.16;;;-4.77;69.49
27729;BME280;15126;42.186;24.340;2023-02-10T04:11:29;101382.50;;;-4.73;68.22
27729;BME280;15126;42.186;24.340;2023-02-10T04:13:56;101380.06;;;-4.80;69.05
27729;BME280;15126;42.186;24.340;2023-02-10T04:16:23;101376.78;;;-4.77;67.78
27729;BME280;15126;42.186;24.340;2023-02-10T04:18:53;101373.81;;;-4.81;67.48
27729;BME280;15126;42.186;24.340;2023-02-10T04:21:20;101379.78;;;-4.73;67.76
27729;BME280;15126;42.186;24.340;2023-02-10T04:23:46;101372.16;;;-4.71;67.45
27729;BME280;15126;42.186;24.340;2023-02-10T04:26:13;101379.22;;;-4.70;67.54
27729;BME280;15126;42.186;24.340;2023-02-10T04:28:42;101375.41;;;-4.69;67.39
27729;BME280;15126;42.186;24.340;2023-02-10T04:31:09;101373.78;;;-4.70;67.36
27729;BME280;15126;42.186;24.340;2023-02-10T04:33:36;101374.34;;;-4.73;67.50
27729;BME280;15126;42.186;24.340;2023-02-10T04:36:04;101383.63;;;-4.79;68.87
27729;BME280;15126;42.186;24.340;2023-02-10T04:38:31;101376.81;;;-4.82;69.13
27729;BME280;15126;42.186;24.340;2023-02-10T04:40:58;101360.25;;;-4.91;68.46
27729;BME280;15126;42.186;24.340;2023-02-10T04:43:24;101371.13;;;-4.91;69.34
27729;BME280;15126;42.186;24.340;2023-02-10T04:45:52;101374.16;;;-4.92;69.51
27729;BME280;15126;42.186;24.340;2023-02-10T04:48:19;101376.31;;;-4.99;70.74
27729;BME280;15126;42.186;24.340;2023-02-10T04:50:47;101352.72;;;-5.19;70.40
27729;BME280;15126;42.186;24.340;2023-02-10T04:53:14;101377.44;;;-5.10;70.83
27729;BME280;15126;42.186;24.340;2023-02-10T04:55:40;101379.91;;;-5.14;71.32
27729;BME280;15126;42.186;24.340;2023-02-10T04:58:07;101384.00;;;-5.11;71.04
27729;BME280;15126;42.186;24.340;2023-02-10T05:00:34;101381.78;;;-4.99;69.10
27729;BME280;15126;42.186;24.340;2023-02-10T05:03:02;101382.59;;;-4.99;69.24
27729;BME280;15126;42.186;24.340;2023-02-10T05:05:29;101372.56;;;-5.03;68.69
27729;BME280;15126;42.186;24.340;2023-02-10T05:07:56;101389.41;;;-5.06;69.50
27729;BME280;15126;42.186;24.340;2023-02-10T05:10:23;101395.91;;;-5.02;68.94
27729;BME280;15126;42.186;24.340;2023-02-10T05:12:50;101391.28;;;-5.02;68.33
27729;BME280;15126;42.186;24.340;2023-02-10T05:15:17;101394.28;;;-4.98;68.13
27729;BME280;15126;42.186;24.340;2023-02-10T05:17:43;101392.13;;;-5.01;68.28
27729;BME280;15126;42.186;24.340;2023-02-10T05:20:12;101386.94;;;-5.08;68.24
27729;BME280;15126;42.186;24.340;2023-02-10T05:22:39;101394.09;;;-5.22;69.87
27729;BME280;15126;42.186;24.340;2023-02-10T05:25:07;101396.78;;;-5.27;69.85
27729;BME280;15126;42.186;24.340;2023-02-10T05:27:34;101398.41;;;-5.16;68.65
27729;BME280;15126;42.186;24.340;2023-02-10T05:30:01;101397.59;;;-5.26;70.23
27729;BME280;15126;42.186;24.340;2023-02-10T05:32:30;101404.94;;;-5.22;69.30
27729;BME280;15126;42.186;24.340;2023-02-10T05:34:56;101404.41;;;-5.29;70.25
27729;BME280;15126;42.186;24.340;2023-02-10T05:37:25;101404.94;;;-5.32;70.75
27729;BME280;15126;42.186;24.340;2023-02-10T05:39:52;101404.97;;;-5.37;70.20
27729;BME280;15126;42.186;24.340;2023-02-10T05:42:19;101406.59;;;-5.31;70.36
27729;BME280;15126;42.186;24.340;2023-02-10T05:44:45;101407.66;;;-5.27;70.14
27729;BME280;15126;42.186;24.340;2023-02-10T05:47:12;101411.72;;;-5.24;70.08
27729;BME280;15126;42.186;24.340;2023-02-10T05:49:39;101398.97;;;-5.34;69.96
27729;BME280;15126;42.186;24.340;2023-02-10T05:52:06;101421.81;;;-5.25;69.54
27729;BME280;15126;42.186;24.340;2023-02-10T05:54:34;101418.00;;;-5.34;69.54
27729;BME280;15126;42.186;24.340;2023-02-10T05:57:03;101420.72;;;-5.34;69.81
27729;BME280;15126;42.186;24.340;2023-02-10T05:59:29;101418.28;;;-5.25;69.72
27729;BME280;15126;42.186;24.340;2023-02-10T06:01:56;101414.47;;;-5.34;68.64
27729;BME280;15126;42.186;24.340;2023-02-10T06:04:23;101421.81;;;-5.20;69.04
27729;BME280;15126;42.186;24.340;2023-02-10T06:06:50;101423.69;;;-5.10;68.44
27729;BME280;15126;42.186;24.340;2023-02-10T06:09:17;101422.88;;;-5.06;69.01
27729;BME280;15126;42.186;24.340;2023-02-10T06:11:45;101424.47;;;-4.95;68.44
27729;BME280;15126;42.186;24.340;2023-02-10T06:14:12;101434.53;;;-4.90;68.75
27729;BME280;15126;42.186;24.340;2023-02-10T06:16:39;101421.75;;;-4.90;68.66
27729;BME280;15126;42.186;24.340;2023-02-10T06:19:05;101432.84;;;-4.76;68.30
27729;BME280;15126;42.186;24.340;2023-02-10T06:21:32;101435.84;;;-4.67;67.96
27729;BME280;15126;42.186;24.340;2023-02-10T06:23:59;101441.25;;;-4.62;67.76
27729;BME280;15126;42.186;24.340;2023-02-10T06:26:26;101436.88;;;-4.58;67.81
27729;BME280;15126;42.186;24.340;2023-02-10T06:28:54;101440.66;;;-4.49;67.60
27729;BME280;15126;42.186;24.340;2023-02-10T06:31:21;101443.63;;;-4.51;67.66
27729;BME280;15126;42.186;24.340;2023-02-10T06:33:49;101437.84;;;-4.34;67.39
27729;BME280;15126;42.186;24.340;2023-02-10T06:36:16;101445.66;;;-4.17;66.95
27729;BME280;15126;42.186;24.340;2023-02-10T06:38:43;101449.34;;;-3.93;66.74
27729;BME280;15126;42.186;24.340;2023-02-10T06:41:09;101446.38;;;-3.58;65.71
27729;BME280;15126;42.186;24.340;2023-02-10T06:43:36;101437.13;;;-3.28;64.83
27729;BME280;15126;42.186;24.340;2023-02-10T06:46:04;101455.38;;;-2.95;64.20
27729;BME280;15126;42.186;24.340;2023-02-10T06:48:32;101453.78;;;-2.72;61.89
27729;BME280;15126;42.186;24.340;2023-02-10T06:50:59;101460.81;;;-2.43;62.59
27729;BME280;15126;42.186;24.340;2023-02-10T06:53:26;101452.25;;;-1.94;62.05
27729;BME280;15126;42.186;24.340;2023-02-10T06:55:55;101449.13;;;-1.31;58.97
27729;BME280;15126;42.186;24.340;2023-02-10T06:58:22;101439.94;;;-1.08;56.38
27729;BME280;15126;42.186;24.340;2023-02-10T07:00:49;101437.78;;;-0.65;54.49
27729;BME280;15126;42.186;24.340;2023-02-10T07:03:17;101443.06;;;-0.41;54.49
27729;BME280;15126;42.186;24.340;2023-02-10T07:05:43;101445.72;;;-0.50;53.79
27729;BME280;15126;42.186;24.340;2023-02-10T07:08:10;101440.63;;;-0.43;53.77
27729;BME280;15126;42.186;24.340;2023-02-10T07:10:37;101441.03;;;-0.36;54.07
27729;BME280;15126;42.186;24.340;2023-02-10T07:13:04;101447.13;;;-0.39;54.84
27729;BME280;15126;42.186;24.340;2023-02-10T07:15:31;101443.47;;;-0.48;54.87
27729;BME280;15126;42.186;24.340;2023-02-10T07:17:57;101442.66;;;-0.48;54.32
27729;BME280;15126;42.186;24.340;2023-02-10T07:20:26;101449.16;;;-0.44;55.02
27729;BME280;15126;42.186;24.340;2023-02-10T07:22:52;101442.38;;;-0.47;54.47
27729;BME280;15126;42.186;24.340;2023-02-10T07:25:19;101446.53;;;-0.63;55.49
27729;BME280;15126;42.186;24.340;2023-02-10T07:27:46;101454.19;;;-0.79;55.80
27729;BME280;15126;42.186;24.340;2023-02-10T07:30:13;101447.31;;;-0.90;56.33
27729;BME280;15126;42.186;24.340;2023-02-10T07:32:40;101447.81;;;-0.88;56.55
27729;BME280;15126;42.186;24.340;2023-02-10T07:35:09;101451.09;;;-1.18;57.13
27729;BME280;15126;42.186;24.340;2023-02-10T07:37:38;101450.03;;;-1.03;57.73
27729;BME280;15126;42.186;24.340;2023-02-10T07:40:06;101452.13;;;-1.00;58.42
27729;BME280;15126;42.186;24.340;2023-02-10T07:42:33;101444.72;;;-1.00;57.86
27729;BME280;15126;42.186;24.340;2023-02-10T07:45:00;101434.50;;;-0.94;57.67
27729;BME280;15126;42.186;24.340;2023-02-10T07:47:27;101436.53;;;-0.86;57.36
27729;BME280;15126;42.186;24.340;2023-02-10T07:49:54;101428.06;;;-0.71;57.53
27729;BME280;15126;42.186;24.340;2023-02-10T07:52:21;101430.69;;;-0.66;57.07
27729;BME280;15126;42.186;24.340;2023-02-10T07:54:49;101427.84;;;-0.75;57.70
27729;BME280;15126;42.186;24.340;2023-02-10T07:57:16;101437.19;;;-0.48;57.33
27729;BME280;15126;42.186;24.340;2023-02-10T07:59:43;101429.25;;;-0.36;56.82
27729;BME280;15126;42.186;24.340;2023-02-10T08:02:10;101434.31;;;-0.16;56.34
27729;BME280;15126;42.186;24.340;2023-02-10T08:04:37;101429.63;;;-0.02;55.16
27729;BME280;15126;42.186;24.340;2023-02-10T08:07:04;101421.19;;;0.08;55.21
27729;BME280;15126;42.186;24.340;2023-02-10T08:09:30;101421.25;;;0.17;53.77
27729;BME280;15126;42.186;24.340;2023-02-10T08:11:59;101409.47;;;0.16;53.82
27729;BME280;15126;42.186;24.340;2023-02-10T08:14:26;101404.03;;;0.25;53.87
27729;BME280;15126;42.186;24.340;2023-02-10T08:16:52;101408.97;;;0.36;54.11
27729;BME280;15126;42.186;24.340;2023-02-10T08:19:19;101401.06;;;0.35;53.47
27729;BME280;15126;42.186;24.340;2023-02-10T08:21:46;101400.00;;;0.44;52.37
27729;BME280;15126;42.186;24.340;2023-02-10T08:24:13;101406.44;;;0.62;53.47
27729;BME280;15126;42.186;24.340;2023-02-10T08:26:40;101410.41;;;0.78;53.35
27729;BME280;15126;42.186;24.340;2023-02-10T08:29:09;101412.22;;;0.83;52.19
27729;BME280;15126;42.186;24.340;2023-02-10T08:31:37;101419.88;;;0.94;49.41
27729;BME280;15126;42.186;24.340;2023-02-10T08:34:04;101411.50;;;0.99;50.87
27729;BME280;15126;42.186;24.340;2023-02-10T08:36:31;101414.03;;;1.18;51.43
27729;BME280;15126;42.186;24.340;2023-02-10T08:38:58;101409.44;;;1.05;51.02
27729;BME280;15126;42.186;24.340;2023-02-10T08:41:24;101414.47;;;1.11;51.58
27729;BME280;15126;42.186;24.340;2023-02-10T08:43:56;101406.44;;;1.24;50.96
27729;BME280;15126;42.186;24.340;2023-02-10T08:46:25;101420.63;;;1.48;51.23
27729;BME280;15126;42.186;24.340;2023-02-10T08:48:52;101415.00;;;1.61;51.03
27729;BME280;15126;42.186;24.340;2023-02-10T08:51:18;101406.94;;;1.65;48.30
27729;BME280;15126;42.186;24.340;2023-02-10T08:53:45;101406.94;;;1.65;49.49
27729;BME280;15126;42.186;24.340;2023-02-10T08:56:16;101396.13;;;1.68;48.22
27729;BME280;15126;42.186;24.340;2023-02-10T08:58:43;101398.19;;;1.63;50.75
27729;BME280;15126;42.186;24.340;2023-02-10T09:01:10;101406.72;;;1.53;50.12
27729;BME280;15126;42.186;24.340;2023-02-10T09:03:39;101415.19;;;1.65;49.65
27729;BME280;15126;42.186;24.340;2023-02-10T09:06:12;101401.13;;;1.75;49.33
27729;BME280;15126;42.186;24.340;2023-02-10T09:08:40;101409.41;;;1.84;48.71
27729;BME280;15126;42.186;24.340;2023-02-10T09:11:08;101403.72;;;1.80;48.97
27729;BME280;15126;42.186;24.340;2023-02-10T09:13:35;101390.97;;;1.93;47.93
27729;BME280;15126;42.186;24.340;2023-02-10T09:16:02;101387.25;;;2.06;48.57
27729;BME280;15126;42.186;24.340;2023-02-10T09:18:29;101393.91;;;2.13;48.07
27729;BME280;15126;42.186;24.340;2023-02-10T09:20:58;101400.53;;;2.29;48.64
27729;BME280;15126;42.186;24.340;2023-02-10T09:23:25;101396.00;;;2.16;46.55
27729;BME280;15126;42.186;24.340;2023-02-10T09:25:53;101387.91;;;2.28;47.89
27729;BME280;15126;42.186;24.340;2023-02-10T09:28:20;101389.19;;;2.39;46.05
27729;BME280;15126;42.186;24.340;2023-02-10T09:30:47;101380.44;;;2.46;46.62
27729;BME280;15126;42.186;24.340;2023-02-10T09:33:14;101383.66;;;2.65;44.23
27729;BME280;15126;42.186;24.340;2023-02-10T09:35:41;101383.03;;;2.60;44.89
27729;BME280;15126;42.186;24.340;2023-02-10T09:38:11;101379.97;;;2.53;44.27
27729;BME280;15126;42.186;24.340;2023-02-10T09:40:47;101378.16;;;2.57;45.01
27729;BME280;15126;42.186;24.340;2023-02-10T09:43:25;101371.84;;;2.56;47.13
27729;BME280;15126;42.186;24.340;2023-02-10T09:46:01;101350.44;;;2.70;44.62
27729;BME280;15126;42.186;24.340;2023-02-10T09:48:39;101354.81;;;2.80;44.39
27729;BME280;15126;42.186;24.340;2023-02-10T09:51:18;101349.59;;;2.87;43.40
27729;BME280;15126;42.186;24.340;2023-02-10T09:53:51;101351.84;;;2.93;44.13
27729;BME280;15126;42.186;24.340;2023-02-10T09:56:20;101346.47;;;2.97;44.57
27729;BME280;15126;42.186;24.340;2023-02-10T09:58:51;101334.28;;;3.07;42.69
27729;BME280;15126;42.186;24.340;2023-02-10T10:01:24;101332.84;;;3.00;43.46
27729;BME280;15126;42.186;24.340;2023-02-10T10:03:55;101326.81;;;3.07;41.87
27729;BME280;15126;42.186;24.340;2023-02-10T10:06:27;101317.88;;;3.10;42.20
27729;BME280;15126;42.186;24.340;2023-02-10T10:09:04;101321.88;;;3.21;42.43
27729;BME280;15126;42.186;24.340;2023-02-10T10:11:38;101311.91;;;3.37;42.76
27729;BME280;15126;42.186;24.340;2023-02-10T10:14:15;101312.72;;;3.38;41.98
27729;BME280;15126;42.186;24.340;2023-02-10T10:17:07;101302.03;;;3.36;44.42
27729;BME280;15126;42.186;24.340;2023-02-10T10:19:50;101302.63;;;3.42;41.35
27729;BME280;15126;42.186;24.340;2023-02-10T10:22:31;101291.25;;;3.43;42.32
27729;BME280;15126;42.186;24.340;2023-02-10T10:25:15;101293.56;;;3.41;43.06
27729;BME280;15126;42.186;24.340;2023-02-10T10:27:55;101283.94;;;3.47;42.60
27729;BME280;15126;42.186;24.340;2023-02-10T10:30:36;101283.84;;;3.35;43.50
27729;BME280;15126;42.186;24.340;2023-02-10T10:33:18;101273.13;;;3.42;43.13
27729;BME280;15126;42.186;24.340;2023-02-10T10:35:47;101272.56;;;3.28;42.84
27729;BME280;15126;42.186;24.340;2023-02-10T10:38:16;101271.28;;;3.46;42.40
27729;BME280;15126;42.186;24.340;2023-02-10T10:40:46;101267.97;;;3.32;43.06
27729;BME280;15126;42.186;24.340;2023-02-10T10:43:17;101281.38;;;3.42;41.16
27729;BME280;15126;42.186;24.340;2023-02-10T10:45:48;101266.75;;;3.50;42.87
27729;BME280;15126;42.186;24.340;2023-02-10T10:48:17;101256.63;;;3.54;43.39
27729;BME280;15126;42.186;24.340;2023-02-10T10:50:47;101264.03;;;3.63;43.20
27729;BME280;15126;42.186;24.340;2023-02-10T10:53:16;101258.19;;;3.85;43.29
27729;BME280;15126;42.186;24.340;2023-02-10T10:55:47;101259.53;;;3.79;41.03
27729;BME280;15126;42.186;24.340;2023-02-10T10:58:24;101237.25;;;3.63;41.34
27729;BME280;15126;42.186;24.340;2023-02-10T11:00:54;101244.38;;;3.85;41.61
27729;BME280;15126;42.186;24.340;2023-02-10T11:03:21;101248.00;;;3.97;41.56
27729;BME280;15126;42.186;24.340;2023-02-10T11:06:01;101228.13;;;4.04;41.22
27729;BME280;15126;42.186;24.340;2023-02-10T11:08:33;101230.25;;;4.19;39.65
27729;BME280;15126;42.186;24.340;2023-02-10T11:11:05;101221.72;;;4.24;39.56
27729;BME280;15126;42.186;24.340;2023-02-10T11:13:37;101238.56;;;4.31;39.52
27729;BME280;15126;42.186;24.340;2023-02-10T11:16:08;101228.19;;;4.28;40.17
27729;BME280;15126;42.186;24.340;2023-02-10T11:18:37;101223.84;;;4.39;40.82
27729;BME280;15126;42.186;24.340;2023-02-10T11:21:06;101211.00;;;4.55;40.09
27729;BME280;15126;42.186;24.340;2023-02-10T11:23:36;101208.69;;;4.57;40.19
27729;BME280;15126;42.186;24.340;2023-02-10T11:26:19;101211.25;;;4.74;38.38
27729;BME280;15126;42.186;24.340;2023-02-10T11:28:45;101206.28;;;4.68;39.06
27729;BME280;15126;42.186;24.340;2023-02-10T11:31:25;101201.31;;;4.73;39.89
27729;BME280;15126;42.186;24.340;2023-02-10T11:33:56;101200.41;;;4.81;38.92
27729;BME280;15126;42.186;24.340;2023-02-10T11:36:30;101196.03;;;4.80;37.74
27729;BME280;15126;42.186;24.340;2023-02-10T11:39:01;101170.00;;;4.57;38.49
27729;BME280;15126;42.186;24.340;2023-02-10T11:41:30;101181.75;;;4.54;38.71
27729;BME280;15126;42.186;24.340;2023-02-10T11:43:57;101183.72;;;4.54;38.83
27729;BME280;15126;42.186;24.340;2023-02-10T11:46:26;101174.97;;;4.64;39.84
27729;BME280;15126;42.186;24.340;2023-02-10T11:48:55;101176.94;;;4.75;39.21
27729;BME280;15126;42.186;24.340;2023-02-10T11:51:22;101172.66;;;4.90;39.85
27729;BME280;15126;42.186;24.340;2023-02-10T11:53:50;101167.81;;;4.99;37.91
27729;BME280;15126;42.186;24.340;2023-02-10T11:56:20;101165.25;;;5.06;38.09
27729;BME280;15126;42.186;24.340;2023-02-10T11:59:18;101162.84;;;4.93;38.17
27729;BME280;15126;42.186;24.340;2023-02-10T12:01:52;101159.19;;;4.89;38.46
27729;BME280;15126;42.186;24.340;2023-02-10T12:04:41;101155.94;;;4.87;38.19
27729;BME280;15126;42.186;24.340;2023-02-10T12:07:19;101146.72;;;4.95;36.63
27729;BME280;15126;42.186;24.340;2023-02-10T12:09:52;101148.00;;;4.97;37.09
27729;BME280;15126;42.186;24.340;2023-02-10T12:12:27;101150.53;;;4.90;37.54
27729;BME280;15126;42.186;24.340;2023-02-10T12:15:07;101144.63;;;5.04;38.35
27729;BME280;15126;42.186;24.340;2023-02-10T12:17:45;101126.47;;;5.03;36.29
27729;BME280;15126;42.186;24.340;2023-02-10T12:20:29;101128.94;;;5.20;36.82
27729;BME280;15126;42.186;24.340;2023-02-10T12:23:11;101124.47;;;5.15;37.16
27729;BME280;15126;42.186;24.340;2023-02-10T12:25:48;101124.31;;;5.24;36.40
27729;BME280;15126;42.186;24.340;2023-02-10T12:28:25;101118.38;;;4.98;38.28
27729;BME280;15126;42.186;24.340;2023-02-10T12:31:02;101121.50;;;4.96;36.83
27729;BME280;15126;42.186;24.340;2023-02-10T12:33:41;101115.28;;;4.99;37.85
27729;BME280;15126;42.186;24.340;2023-02-10T12:36:21;101112.16;;;5.01;36.65
27729;BME280;15126;42.186;24.340;2023-02-10T12:38:56;101110.66;;;5.03;37.04
27729;BME280;15126;42.186;24.340;2023-02-10T12:41:32;101122.06;;;4.90;37.06
27729;BME280;15126;42.186;24.340;2023-02-10T12:44:11;101102.34;;;5.03;36.92
27729;BME280;15126;42.186;24.340;2023-02-10T12:47:01;101112.84;;;4.98;36.14
27729;BME280;15126;42.186;24.340;2023-02-10T12:49:44;101105.22;;;5.07;36.52
27729;BME280;15126;42.186;24.340;2023-02-10T12:52:18;101103.84;;;5.01;36.24
27729;BME280;15126;42.186;24.340;2023-02-10T12:54:50;101100.81;;;5.18;36.78
27729;BME280;15126;42.186;24.340;2023-02-10T12:57:22;101100.44;;;5.31;35.56
27729;BME280;15126;42.186;24.340;2023-02-10T12:59:55;101102.09;;;5.48;34.88